Time;durP1;ratioP1;P1;durP2;ratioP2;P2;SDS_P1;SDS_P2;PMS_P1;PMS_P2;Temp;Humidity;BMP_temperature;BMP_pressure;BME280_temperature;BME280_humidity;BME280_pressure;Samples;Min_cycle;Max_cycle;Signal;HPM_P1;HPM_P2
2022/09/16 00:00:15;;;;;;;1.03;0.93;;;24.10;42.80;;;;;;6196335;23;20202;-59
2022/09/16 00:02:41;;;;;;;1.10;1.00;;;24.10;42.80;;;;;;6183177;23;20199;-61
2022/09/16 00:05:07;;;;;;;1.20;1.10;;;24.10;42.80;;;;;;6145103;23;20665;-62
2022/09/16 00:07:33;;;;;;;1.20;1.10;;;24.10;42.80;;;;;;6180841;23;20206;-61
2022/09/16 00:09:59;;;;;;;1.57;0.90;;;24.10;43.60;;;;;;6202943;23;20417;-63
2022/09/16 00:12:25;;;;;;;1.13;1.03;;;24.10;42.80;;;;;;6204906;23;20205;-64
2022/09/16 00:14:52;;;;;;;1.03;0.97;;;24.10;42.80;;;;;;6191297;23;20729;-62
2022/09/16 00:17:18;;;;;;;1.10;1.00;;;24.10;42.80;;;;;;6193675;23;20253;-59
2022/09/16 00:19:44;;;;;;;1.10;1.00;;;24.10;42.80;;;;;;6201935;23;20419;-60
2022/09/16 00:22:09;;;;;;;1.33;0.93;;;24.10;42.80;;;;;;6175708;23;20557;-63
2022/09/16 00:24:35;;;;;;;1.10;1.00;;;24.10;42.80;;;;;;6175077;23;20562;-60
2022/09/16 00:27:01;;;;;;;0.93;0.90;;;24.10;42.80;;;;;;6175790;23;20273;-61
2022/09/16 00:29:26;;;;;;;0.90;0.80;;;24.10;42.90;;;;;;6178069;23;20202;-61
2022/09/16 00:31:52;;;;;;;3.93;0.83;;;24.10;42.80;;;;;;6186996;23;20217;-59
2022/09/16 00:34:17;;;;;;;1.00;0.93;;;24.10;42.80;;;;;;6205889;23;20194;-60
2022/09/16 00:36:43;;;;;;;0.90;0.90;;;24.10;42.80;;;;;;6206458;23;20340;-59
2022/09/16 00:39:08;;;;;;;1.00;0.90;;;24.10;42.80;;;;;;6206235;23;20197;-65
2022/09/16 00:41:35;;;;;;;0.90;0.90;;;24.10;42.80;;;;;;6205504;23;20237;-60
2022/09/16 00:44:26;;;;;;;1.00;0.90;;;24.10;42.80;;;;;;6204359;23;20194;-61
2022/09/16 00:46:53;;;;;;;1.00;0.90;;;24.10;42.80;;;;;;6114410;23;20484;-59
2022/09/16 00:49:24;;;;;;;1.10;0.73;;;24.10;42.80;;;;;;6205528;23;20423;-60
2022/09/16 00:51:54;;;;;;;0.97;0.87;;;24.10;42.80;;;;;;6192952;23;20494;-59
2022/09/16 00:54:20;;;;;;;0.87;0.83;;;24.10;42.80;;;;;;6205726;23;20929;-59
2022/09/16 00:56:50;;;;;;;1.03;0.93;;;24.10;42.80;;;;;;6205895;23;20411;-59
2022/09/16 00:59:28;;;;;;;0.90;0.77;;;24.10;42.80;;;;;;6199119;23;20221;-68
2022/09/16 01:01:57;;;;;;;1.07;0.97;;;24.10;42.80;;;;;;6172139;23;20416;-60
2022/09/16 01:04:26;;;;;;;1.20;0.90;;;24.00;42.70;;;;;;6176505;23;20412;-61
2022/09/16 01:06:52;;;;;;;1.17;1.07;;;24.10;43.00;;;;;;6178899;23;20840;-61
2022/09/16 01:09:21;;;;;;;1.10;0.90;;;24.00;42.70;;;;;;6159816;23;20799;-59
2022/09/16 01:11:47;;;;;;;1.00;0.90;;;24.10;42.80;;;;;;6204275;23;21055;-60
2022/09/16 01:16:58;;;;;;;1.00;1.00;;;24.10;42.80;;;;;;6183001;23;20268;-60
2022/09/16 01:19:58;;;;;;;1.10;1.00;;;24.10;42.80;;;;;;6178292;23;20417;-59
2022/09/16 01:22:40;;;;;;;1.23;1.13;;;24.10;42.80;;;;;;6198925;23;20219;-61
2022/09/16 01:25:25;;;;;;;1.50;0.90;;;24.00;42.70;;;;;;6202568;23;20416;-59
2022/09/16 01:28:12;;;;;;;1.20;1.10;;;24.00;42.70;;;;;;6175876;23;20952;-59
2022/09/16 01:30:56;;;;;;;2.23;0.77;;;24.00;42.70;;;;;;6200583;23;20439;-60
2022/09/16 01:33:39;;;;;;;0.90;0.80;;;24.00;42.70;;;;;;6188956;23;20416;-60
2022/09/16 01:36:42;;;;;;;0.80;0.80;;;24.00;42.70;;;;;;6200939;23;20794;-59
2022/09/16 01:39:32;;;;;;;0.80;0.73;;;24.00;42.70;;;;;;6200979;23;20422;-63
2022/09/16 01:42:06;;;;;;;0.70;0.70;;;24.00;42.70;;;;;;6204859;23;20424;-62
2022/09/16 01:45:02;;;;;;;0.90;0.90;;;24.00;43.50;;;;;;6205630;23;20426;-62
2022/09/16 01:47:56;;;;;;;0.90;0.90;;;24.00;42.70;;;;;;6184721;23;20963;-60
2022/09/16 01:50:46;;;;;;;1.03;0.90;;;24.00;42.70;;;;;;6173973;23;20420;-60
2022/09/16 01:53:24;;;;;;;0.83;0.83;;;24.00;42.70;;;;;;6204448;23;20416;-62
2022/09/16 01:56:13;;;;;;;1.00;0.90;;;24.00;42.70;;;;;;6205252;23;20726;-63
2022/09/16 01:58:48;;;;;;;1.10;1.00;;;24.00;42.70;;;;;;6198325;23;20777;-68
2022/09/16 02:01:34;;;;;;;1.10;1.00;;;24.00;42.70;;;;;;6204699;23;20411;-60
2022/09/16 02:04:05;;;;;;;0.80;0.80;;;24.00;42.70;;;;;;6203824;23;20426;-60
2022/09/16 02:06:32;;;;;;;0.80;0.80;;;24.00;42.70;;;;;;6205098;23;20412;-60
2022/09/16 02:09:05;;;;;;;1.10;1.00;;;24.00;42.70;;;;;;6206349;23;20719;-61
2022/09/16 02:11:31;;;;;;;1.00;0.90;;;24.00;42.70;;;;;;6204240;23;20427;-60
2022/09/16 02:13:59;;;;;;;1.27;0.80;;;24.00;42.70;;;;;;6206645;23;20438;-61
2022/09/16 02:16:29;;;;;;;1.27;0.90;;;24.00;42.70;;;;;;6204453;23;20225;-61
2022/09/16 02:19:01;;;;;;;1.00;0.90;;;24.00;42.70;;;;;;6205837;23;20434;-65
2022/09/16 02:21:30;;;;;;;0.93;0.90;;;24.00;42.70;;;;;;6204076;23;20889;-59
2022/09/16 02:24:00;;;;;;;1.20;1.00;;;24.00;42.70;;;;;;6207110;23;20420;-62
2022/09/16 02:26:38;;;;;;;1.20;0.90;;;24.00;42.70;;;;;;6205767;23;20466;-60
2022/09/16 02:29:11;;;;;;;1.07;0.90;;;24.00;42.70;;;;;;6205022;23;20498;-59
2022/09/16 02:31:38;;;;;;;1.50;0.73;;;24.00;42.70;;;;;;6204056;23;20423;-60
2022/09/16 02:34:18;;;;;;;0.83;0.83;;;24.00;42.70;;;;;;6205854;23;20446;-66
2022/09/16 02:36:51;;;;;;;0.77;0.77;;;24.00;42.70;;;;;;6204474;23;20430;-59
2022/09/16 02:39:22;;;;;;;1.00;0.90;;;24.00;42.70;;;;;;6204694;23;20985;-59
2022/09/16 02:41:48;;;;;;;0.80;0.80;;;24.00;43.50;;;;;;6204289;23;20439;-61
2022/09/16 02:44:14;;;;;;;0.93;0.83;;;24.00;42.70;;;;;;6204815;23;20478;-61
2022/09/16 02:46:51;;;;;;;1.10;0.80;;;24.00;42.70;;;;;;6203635;23;20518;-59
2022/09/16 02:49:28;;;;;;;0.70;0.70;;;24.00;42.70;;;;;;6204449;23;20420;-59
2022/09/16 02:52:06;;;;;;;0.90;0.80;;;24.00;42.70;;;;;;6203202;23;20427;-59
2022/09/16 02:54:35;;;;;;;1.00;0.90;;;24.00;42.70;;;;;;6177487;23;20522;-62
2022/09/16 02:57:01;;;;;;;0.90;0.90;;;24.00;42.70;;;;;;6175023;23;20479;-60
2022/09/16 02:59:27;;;;;;;1.13;1.03;;;24.00;42.70;;;;;;6176092;23;20416;-62
2022/09/16 03:01:53;;;;;;;1.10;0.80;;;24.00;42.70;;;;;;6185624;23;20418;-63
2022/09/16 03:04:20;;;;;;;1.97;0.80;;;24.00;42.70;;;;;;6202154;23;20190;-59
2022/09/16 03:06:46;;;;;;;1.23;0.90;;;24.00;42.70;;;;;;6203666;23;20816;-60
2022/09/16 03:09:14;;;;;;;1.00;0.90;;;24.00;42.70;;;;;;6203313;23;20415;-63
2022/09/16 03:11:42;;;;;;;1.10;1.00;;;24.00;42.70;;;;;;6204222;23;20416;-59
2022/09/16 03:14:29;;;;;;;0.80;0.80;;;24.00;42.70;;;;;;6206494;23;20442;-60
2022/09/16 03:17:14;;;;;;;1.20;1.10;;;24.00;42.70;;;;;;6197245;23;20497;-59
2022/09/16 03:20:13;;;;;;;0.90;0.90;;;24.00;43.50;;;;;;6197223;23;20945;-60
2022/09/16 03:22:50;;;;;;;0.80;0.80;;;24.00;42.70;;;;;;6192497;23;20493;-60
2022/09/16 03:25:33;;;;;;;0.70;0.70;;;24.00;42.70;;;;;;6175631;23;20416;-59
2022/09/16 03:28:20;;;;;;;1.00;0.90;;;24.00;42.70;;;;;;6173625;23;20498;-59
2022/09/16 03:31:00;;;;;;;1.00;0.90;;;24.00;42.70;;;;;;6173176;23;20424;-63
2022/09/16 03:33:38;;;;;;;1.07;0.83;;;24.00;42.70;;;;;;6175730;23;20404;-60
2022/09/16 03:36:06;;;;;;;0.80;0.80;;;24.00;42.70;;;;;;6174483;23;20462;-62
2022/09/16 03:38:34;;;;;;;0.87;0.80;;;24.00;42.70;;;;;;6205869;23;20735;-62
2022/09/16 03:41:03;;;;;;;1.17;1.00;;;24.00;42.70;;;;;;6205586;23;20411;-60
2022/09/16 03:43:29;;;;;;;1.10;1.00;;;24.00;42.70;;;;;;6206010;23;20426;-60
2022/09/16 03:45:54;;;;;;;0.90;0.90;;;24.00;42.70;;;;;;6206468;23;20408;-59
2022/09/16 03:48:20;;;;;;;0.70;0.70;;;24.00;42.70;;;;;;6204611;23;20216;-59
2022/09/16 03:50:45;;;;;;;0.80;0.80;;;24.00;43.50;;;;;;6204384;23;20202;-60
2022/09/16 03:53:11;;;;;;;1.00;0.90;;;24.00;42.70;;;;;;6204303;23;20265;-59
2022/09/16 03:55:36;;;;;;;1.30;1.20;;;24.00;42.70;;;;;;6206056;23;20309;-59
2022/09/16 03:58:02;;;;;;;1.10;1.00;;;24.00;42.70;;;;;;6202588;23;20293;-61
2022/09/16 04:00:28;;;;;;;0.83;0.83;;;24.00;42.70;;;;;;6202315;23;20281;-62
2022/09/16 04:02:54;;;;;;;0.87;0.87;;;24.00;42.70;;;;;;6207648;23;20411;-59
2022/09/16 04:05:19;;;;;;;0.80;0.80;;;24.00;42.70;;;;;;6206149;23;20903;-59
2022/09/16 04:07:48;;;;;;;1.20;0.90;;;24.00;42.70;;;;;;6204813;23;20206;-59
2022/09/16 04:10:14;;;;;;;1.10;1.00;;;24.00;42.70;;;;;;6207941;23;20221;-58
2022/09/16 04:12:39;;;;;;;1.10;1.00;;;24.00;42.70;;;;;;6208838;23;20423;-59
2022/09/16 04:15:05;;;;;;;0.97;0.87;;;24.00;42.70;;;;;;6208155;23;20217;-61
2022/09/16 04:17:32;;;;;;;0.80;0.80;;;24.00;42.70;;;;;;6208398;23;20209;-64
2022/09/16 04:19:57;;;;;;;0.80;0.80;;;24.00;42.70;;;;;;6209028;23;20875;-71
2022/09/16 04:22:23;;;;;;;0.90;0.90;;;24.00;42.70;;;;;;6210083;23;20502;-62
2022/09/16 04:24:48;;;;;;;0.90;0.90;;;24.00;42.70;;;;;;6208183;23;20261;-64
2022/09/16 04:27:14;;;;;;;1.23;0.80;;;24.00;42.70;;;;;;6207946;23;20260;-61
2022/09/16 04:29:39;;;;;;;0.90;0.90;;;24.10;42.80;;;;;;6208402;23;20202;-59
2022/09/16 04:32:05;;;;;;;0.93;0.80;;;24.10;42.80;;;;;;6206532;23;20196;-59
2022/09/16 04:34:31;;;;;;;1.43;1.33;;;24.10;42.80;;;;;;6205293;23;20201;-62
2022/09/16 04:36:57;;;;;;;1.20;1.00;;;24.10;42.80;;;;;;6206553;23;20897;-60
2022/09/16 04:39:23;;;;;;;1.00;0.90;;;24.10;42.80;;;;;;6210347;23;20198;-60
2022/09/16 04:41:48;;;;;;;1.00;0.90;;;24.10;42.70;;;;;;6206263;23;20490;-61
2022/09/16 04:44:14;;;;;;;1.00;0.90;;;24.10;42.70;;;;;;6204910;23;20514;-59
2022/09/16 04:46:40;;;;;;;0.80;0.80;;;24.10;42.60;;;;;;6206704;23;20198;-61
2022/09/16 04:49:05;;;;;;;1.20;0.90;;;24.10;42.60;;;;;;6205945;23;20678;-58
2022/09/16 04:51:31;;;;;;;0.80;0.80;;;24.10;42.70;;;;;;6209515;23;20210;-59
2022/09/16 04:53:57;;;;;;;0.90;0.80;;;24.10;42.60;;;;;;6210157;23;20194;-63
2022/09/16 04:56:25;;;;;;;1.20;1.10;;;24.10;42.70;;;;;;6209666;23;20525;-59
2022/09/16 04:58:53;;;;;;;0.90;0.77;;;24.10;42.70;;;;;;6189282;23;20420;-59
2022/09/16 05:01:22;;;;;;;0.90;0.80;;;24.10;42.70;;;;;;6190125;23;20418;-61
2022/09/16 05:03:50;;;;;;;8.77;1.17;;;24.10;42.60;;;;;;6203291;23;20423;-60
2022/09/16 05:06:18;;;;;;;1.80;0.90;;;24.10;42.70;;;;;;6205195;23;20472;-63
2022/09/16 05:08:44;;;;;;;1.40;1.00;;;24.10;42.70;;;;;;6207923;23;20428;-60
2022/09/16 05:11:16;;;;;;;1.80;1.00;;;24.10;42.70;;;;;;6208210;23;20503;-62
2022/09/16 05:13:42;;;;;;;4.57;1.03;;;24.10;42.70;;;;;;6205412;23;20581;-61
2022/09/16 05:16:11;;;;;;;1.00;0.90;;;24.10;42.70;;;;;;6207428;23;20499;-59
2022/09/16 05:18:38;;;;;;;1.33;1.07;;;24.10;42.60;;;;;;6169472;23;20198;-61
2022/09/16 05:21:06;;;;;;;8.13;1.00;;;24.10;42.80;;;;;;6203063;23;20470;-63
2022/09/16 05:23:32;;;;;;;0.90;0.80;;;24.10;42.70;;;;;;6204888;23;20420;-64
2022/09/16 05:26:03;;;;;;;1.10;1.00;;;24.10;42.70;;;;;;6206973;23;20404;-61
2022/09/16 05:28:29;;;;;;;1.83;1.20;;;24.10;42.70;;;;;;6204687;23;20474;-63
2022/09/16 05:30:55;;;;;;;1.10;1.00;;;24.10;42.70;;;;;;6204892;23;20412;-64
2022/09/16 05:33:21;;;;;;;1.87;1.00;;;24.10;42.70;;;;;;6203577;23;20202;-60
2022/09/16 05:35:46;;;;;;;1.10;1.00;;;24.10;42.70;;;;;;6204022;23;20194;-61
2022/09/16 05:38:12;;;;;;;1.93;0.90;;;24.10;42.70;;;;;;6204739;23;20201;-63
2022/09/16 05:40:38;;;;;;;2.40;1.10;;;24.10;42.60;;;;;;6200686;23;20205;-62
2022/09/16 05:43:04;;;;;;;2.13;1.00;;;24.10;42.60;;;;;;6202452;23;20316;-59
2022/09/16 05:45:29;;;;;;;3.00;0.97;;;24.10;42.50;;;;;;6201630;23;20292;-64
2022/09/16 05:47:55;;;;;;;1.77;1.00;;;24.10;42.50;;;;;;6204521;23;20475;-61
2022/09/16 05:50:21;;;;;;;3.27;0.90;;;24.10;42.50;;;;;;6203222;23;20209;-60
2022/09/16 05:52:46;;;;;;;1.40;1.10;;;24.00;42.30;;;;;;6202261;23;20717;-61
2022/09/16 05:55:12;;;;;;;1.40;1.10;;;24.10;42.40;;;;;;6201333;23;20245;-61
2022/09/16 05:57:37;;;;;;;1.43;0.90;;;24.00;42.30;;;;;;6201467;23;20281;-61
2022/09/16 06:00:05;;;;;;;1.17;1.00;;;24.10;42.20;;;;;;6203994;23;20618;-59
2022/09/16 06:02:30;;;;;;;0.90;0.90;;;24.10;42.20;;;;;;6202821;23;20256;-63
2022/09/16 06:04:56;;;;;;;1.93;1.00;;;24.10;42.10;;;;;;6203859;23;20818;-64
2022/09/16 06:07:21;;;;;;;1.93;1.00;;;24.00;41.80;;;;;;6172930;23;20290;-59
2022/09/16 06:09:47;;;;;;;1.43;1.00;;;24.00;41.70;;;;;;6172781;23;20199;-61
2022/09/16 06:12:13;;;;;;;1.10;1.00;;;24.00;41.70;;;;;;6176158;23;20209;-64
2022/09/16 06:14:38;;;;;;;1.10;1.00;;;24.00;41.70;;;;;;6203896;23;20536;-60
2022/09/16 06:17:04;;;;;;;1.10;0.90;;;24.00;41.70;;;;;;6200917;23;20197;-62
2022/09/16 06:19:29;;;;;;;0.90;0.83;;;24.00;41.70;;;;;;6203489;23;20202;-66
2022/09/16 06:21:55;;;;;;;1.20;0.90;;;24.00;41.70;;;;;;6206343;23;20200;-59
2022/09/16 06:24:21;;;;;;;2.20;0.80;;;24.00;41.70;;;;;;6198115;23;20728;-61
2022/09/16 06:26:48;;;;;;;1.20;0.90;;;24.00;41.60;;;;;;6202027;23;20452;-59
2022/09/16 06:29:15;;;;;;;1.43;0.93;;;24.00;41.70;;;;;;6202469;23;20228;-59
2022/09/16 06:31:41;;;;;;;1.53;1.10;;;24.00;41.70;;;;;;6202668;23;20416;-68
2022/09/16 06:34:11;;;;;;;1.10;1.00;;;24.00;41.70;;;;;;6201909;23;20436;-67
2022/09/16 06:36:38;;;;;;;3.73;0.90;;;24.00;41.70;;;;;;6197348;23;21125;-60
2022/09/16 06:39:05;;;;;;;0.80;0.80;;;24.10;41.80;;;;;;6201105;23;20416;-62
2022/09/16 06:41:32;;;;;;;1.20;1.10;;;24.10;41.80;;;;;;6198085;23;20424;-65
2022/09/16 06:43:58;;;;;;;1.00;0.90;;;24.10;41.70;;;;;;6202266;23;20419;-62
2022/09/16 06:46:24;;;;;;;0.80;0.80;;;24.10;41.80;;;;;;6203216;23;20506;-59
2022/09/16 06:48:52;;;;;;;1.00;0.90;;;24.00;41.70;;;;;;6200554;23;20227;-59
2022/09/16 06:51:23;;;;;;;1.67;0.90;;;24.10;41.80;;;;;;6201937;23;20411;-60
2022/09/16 06:53:50;;;;;;;1.60;1.00;;;24.10;41.80;;;;;;6200978;23;20415;-60
2022/09/16 06:56:18;;;;;;;0.90;0.90;;;24.00;41.70;;;;;;6201317;23;20427;-63
2022/09/16 06:58:47;;;;;;;1.00;0.90;;;24.10;41.80;;;;;;6202493;23;20416;-64
2022/09/16 07:01:18;;;;;;;2.60;1.10;;;24.10;41.80;;;;;;6205095;23;20430;-62
2022/09/16 07:03:48;;;;;;;1.87;0.83;;;24.10;41.90;;;;;;6206253;23;20910;-60
2022/09/16 07:06:15;;;;;;;1.10;1.00;;;24.10;41.80;;;;;;6207256;23;20418;-61
2022/09/16 07:08:41;;;;;;;1.20;1.10;;;24.10;41.80;;;;;;6206991;23;20427;-59
2022/09/16 07:11:15;;;;;;;0.87;0.80;;;24.10;41.90;;;;;;6207818;23;20855;-58
2022/09/16 07:13:42;;;;;;;1.00;0.83;;;24.10;41.80;;;;;;6205675;23;20416;-60
2022/09/16 07:16:11;;;;;;;1.10;1.00;;;24.10;41.80;;;;;;6206553;23;20507;-59
2022/09/16 07:18:37;;;;;;;0.97;0.93;;;24.10;41.80;;;;;;6205167;23;20423;-59
2022/09/16 07:21:14;;;;;;;1.57;0.90;;;24.10;41.80;;;;;;6205505;23;20871;-60
2022/09/16 07:23:41;;;;;;;1.27;0.80;;;24.10;41.80;;;;;;6198537;23;20761;-60
2022/09/16 07:26:09;;;;;;;0.80;0.80;;;24.00;41.70;;;;;;6204069;23;20506;-59
2022/09/16 07:28:36;;;;;;;1.23;1.00;;;24.10;41.80;;;;;;6197956;23;21294;-61
2022/09/16 07:31:10;;;;;;;1.17;1.07;;;24.10;41.80;;;;;;6203337;23;21189;-60
2022/09/16 07:33:41;;;;;;;1.00;0.90;;;24.10;41.80;;;;;;6203767;23;21000;-59
2022/09/16 07:36:08;;;;;;;1.30;1.20;;;24.10;41.90;;;;;;6202999;23;20419;-59
2022/09/16 07:38:34;;;;;;;1.13;1.03;;;24.00;41.80;;;;;;6201632;23;20428;-60
2022/09/16 07:41:07;;;;;;;1.10;1.00;;;24.00;41.70;;;;;;6201172;23;20416;-61
2022/09/16 07:43:33;;;;;;;0.83;0.83;;;24.00;41.80;;;;;;6201567;23;20522;-59
2022/09/16 07:45:59;;;;;;;1.30;0.83;;;24.00;41.80;;;;;;6198441;23;20558;-66
2022/09/16 07:48:27;;;;;;;1.43;0.90;;;24.00;41.80;;;;;;6201898;23;20519;-66
2022/09/16 07:50:57;;;;;;;1.30;1.10;;;24.00;41.80;;;;;;6201197;23;20550;-63
2022/09/16 07:53:26;;;;;;;0.90;0.80;;;24.00;41.70;;;;;;6193301;23;20744;-62
2022/09/16 07:55:55;;;;;;;1.77;1.20;;;24.00;41.80;;;;;;6200888;23;20416;-60
2022/09/16 07:58:20;;;;;;;1.20;0.80;;;24.00;41.80;;;;;;6201369;23;20424;-61
2022/09/16 08:00:48;;;;;;;1.67;1.00;;;24.00;41.80;;;;;;6201041;23;20438;-62
2022/09/16 08:03:14;;;;;;;1.00;0.90;;;24.00;41.80;;;;;;6201904;23;20221;-60
2022/09/16 08:05:40;;;;;;;1.20;1.10;;;24.00;41.90;;;;;;6200749;23;20462;-63
2022/09/16 08:08:05;;;;;;;1.00;0.90;;;24.00;41.90;;;;;;6202451;23;20467;-60
2022/09/16 08:10:31;;;;;;;1.13;1.03;;;24.00;41.90;;;;;;6201755;23;20186;-60
2022/09/16 08:12:56;;;;;;;1.20;0.90;;;24.00;41.90;;;;;;6195101;23;20280;-63
2022/09/16 08:15:22;;;;;;;1.17;0.77;;;24.00;41.90;;;;;;6150239;23;1121315;-62
2022/09/16 08:17:47;;;;;;;1.00;0.90;;;24.00;41.90;;;;;;6198438;23;20220;-65
2022/09/16 08:20:13;;;;;;;0.80;0.80;;;24.00;41.90;;;;;;6198661;23;20552;-65
2022/09/16 08:22:38;;;;;;;0.97;0.87;;;24.00;41.90;;;;;;6200282;23;20202;-60
2022/09/16 08:25:04;;;;;;;1.23;0.90;;;24.10;42.00;;;;;;6200053;23;20245;-59
2022/09/16 08:27:33;;;;;;;1.60;0.80;;;24.10;42.00;;;;;;6200482;23;20794;-61
2022/09/16 08:29:58;;;;;;;1.13;1.00;;;24.10;42.00;;;;;;6200532;23;20197;-59
2022/09/16 08:32:24;;;;;;;0.93;0.83;;;24.00;41.80;;;;;;6202720;23;20412;-59
2022/09/16 08:34:49;;;;;;;2.40;0.80;;;24.00;41.80;;;;;;6198219;23;20621;-61
2022/09/16 08:37:15;;;;;;;1.37;0.90;;;24.00;41.60;;;;;;6200400;23;20209;-64
2022/09/16 08:39:40;;;;;;;1.80;0.90;;;24.00;41.60;;;;;;6200014;23;20273;-66
2022/09/16 08:42:37;;;;;;;1.03;0.77;;;24.10;41.10;;;;;;6200706;23;20596;-60
2022/09/16 08:45:34;;;;;;;1.80;1.30;;;24.10;40.80;;;;;;6182903;23;20214;-65
2022/09/16 08:48:33;;;;;;;0.73;0.70;;;24.10;40.20;;;;;;6175771;23;20451;-60
2022/09/16 08:51:01;;;;;;;0.80;0.80;;;24.10;39.70;;;;;;6192877;23;20415;-60
2022/09/16 08:53:36;;;;;;;1.83;0.90;;;24.10;39.90;;;;;;6200214;23;20867;-62
2022/09/16 08:56:09;;;;;;;1.37;0.70;;;24.10;39.90;;;;;;6191713;23;20423;-58
2022/09/16 08:58:43;;;;;;;1.13;0.80;;;24.10;40.00;;;;;;6189909;23;20423;-59
2022/09/16 09:01:33;;;;;;;0.70;0.70;;;24.10;40.00;;;;;;6191718;23;20412;-64
2022/09/16 09:04:00;;;;;;;1.27;1.10;;;24.10;40.00;;;;;;6169375;23;20412;-64
2022/09/16 09:06:37;;;;;;;1.07;0.70;;;24.10;40.00;;;;;;6171034;23;20420;-59
2022/09/16 09:09:35;;;;;;;1.00;0.90;;;24.10;40.10;;;;;;6170959;23;20435;-59
2022/09/16 09:12:06;;;;;;;0.90;0.80;;;24.10;40.10;;;;;;6188511;23;20810;-61
2022/09/16 09:14:59;;;;;;;1.00;0.70;;;24.10;40.10;;;;;;6201162;23;20438;-62
2022/09/16 09:18:01;;;;;;;0.90;0.70;;;24.10;40.20;;;;;;6200114;23;20408;-60
2022/09/16 09:20:30;;;;;;;0.93;0.60;;;24.10;40.20;;;;;;6180571;23;20762;-60
2022/09/16 09:23:19;;;;;;;7.20;1.17;;;24.10;40.00;;;;;;6200456;23;20498;-59
2022/09/16 09:26:03;;;;;;;0.97;0.87;;;24.10;40.00;;;;;;6168702;23;20420;-67
2022/09/16 09:28:46;;;;;;;0.87;0.70;;;24.10;39.70;;;;;;6169607;23;20432;-61
2022/09/16 09:31:30;;;;;;;0.77;0.70;;;24.10;39.50;;;;;;6170588;23;20420;-65
2022/09/16 09:34:23;;;;;;;1.67;0.70;;;24.20;39.60;;;;;;6170680;23;20448;-62
2022/09/16 09:37:26;;;;;;;0.90;0.90;;;24.20;39.60;;;;;;6168697;23;20409;-59
2022/09/16 09:40:08;;;;;;;1.20;0.80;;;24.20;39.60;;;;;;6188310;23;20502;-61
2022/09/16 09:42:42;;;;;;;2.47;0.80;;;24.10;39.60;;;;;;6197450;23;20519;-60
2022/09/16 09:45:17;;;;;;;1.17;0.63;;;24.20;39.50;;;;;;6200830;23;20419;-60
2022/09/16 09:47:48;;;;;;;2.10;0.80;;;24.20;39.60;;;;;;6199430;23;20451;-65
2022/09/16 09:50:28;;;;;;;1.30;1.20;;;24.20;39.80;;;;;;6198323;23;20426;-66
2022/09/16 09:52:56;;;;;;;1.57;0.97;;;24.20;39.90;;;;;;6172029;23;20875;-59
2022/09/16 09:55:25;;;;;;;0.70;0.70;;;24.20;40.00;;;;;;6196510;23;20445;-63
2022/09/16 09:58:08;;;;;;;1.20;0.87;;;24.20;40.10;;;;;;6202934;23;20499;-64
2022/09/16 10:00:34;;;;;;;0.80;0.70;;;24.20;40.00;;;;;;6196374;23;20420;-61
2022/09/16 10:03:16;;;;;;;1.00;0.90;;;24.20;40.10;;;;;;6176208;23;20415;-65
2022/09/16 10:05:42;;;;;;;0.73;0.60;;;24.20;40.00;;;;;;6173024;23;20301;-64
2022/09/16 10:08:14;;;;;;;0.67;0.60;;;24.20;40.10;;;;;;6168479;23;20428;-58
2022/09/16 10:11:00;;;;;;;0.80;0.60;;;24.20;40.10;;;;;;6169708;23;20448;-60
2022/09/16 10:13:28;;;;;;;0.87;0.70;;;24.30;40.20;;;;;;6173288;23;20910;-61
2022/09/16 10:16:12;;;;;;;1.00;0.70;;;24.30;40.40;;;;;;6184414;23;20499;-58
2022/09/16 10:18:38;;;;;;;0.90;0.80;;;24.30;40.40;;;;;;6189137;23;20420;-62
2022/09/16 10:21:06;;;;;;;0.70;0.60;;;24.30;40.70;;;;;;6169200;23;20417;-59
2022/09/16 10:23:33;;;;;;;0.93;0.70;;;24.30;40.60;;;;;;6173565;23;20424;-64
2022/09/16 10:26:12;;;;;;;1.00;0.80;;;24.30;40.60;;;;;;6165780;23;20417;-64
2022/09/16 10:28:38;;;;;;;0.77;0.60;;;24.30;40.60;;;;;;6166943;23;20494;-60
2022/09/16 10:31:06;;;;;;;0.77;0.70;;;24.30;40.70;;;;;;6172261;23;20420;-58
2022/09/16 10:33:41;;;;;;;0.70;0.63;;;24.30;40.80;;;;;;6173202;23;20203;-60
2022/09/16 10:36:20;;;;;;;1.63;0.60;;;24.30;40.70;;;;;;6172039;23;20431;-61
2022/09/16 10:38:52;;;;;;;0.80;0.60;;;24.30;40.80;;;;;;6171697;23;20419;-58
2022/09/16 10:41:27;;;;;;;0.80;0.73;;;24.30;40.80;;;;;;6168473;23;20421;-64
2022/09/16 10:43:57;;;;;;;0.93;0.70;;;24.30;40.80;;;;;;6181272;23;20427;-60
2022/09/16 10:46:22;;;;;;;3.33;0.60;;;24.30;40.80;;;;;;6170441;23;20432;-62
2022/09/16 10:48:50;;;;;;;0.70;0.60;;;24.30;40.80;;;;;;6168872;23;20429;-62
2022/09/16 10:51:28;;;;;;;1.00;0.70;;;24.30;40.80;;;;;;6170419;23;20257;-58
2022/09/16 10:53:55;;;;;;;1.33;0.60;;;24.30;40.70;;;;;;6170662;23;20464;-62
2022/09/16 10:56:30;;;;;;;0.90;0.90;;;24.30;40.80;;;;;;6169947;23;20425;-62
2022/09/16 10:59:07;;;;;;;1.20;0.70;;;24.30;40.80;;;;;;6170228;23;20519;-66
2022/09/16 11:02:14;;;;;;;0.70;0.50;;;24.30;40.80;;;;;;6194775;23;20415;-60
2022/09/16 11:05:16;;;;;;;0.73;0.60;;;24.30;40.80;;;;;;6139363;23;20506;-64
2022/09/16 11:08:00;;;;;;;0.80;0.60;;;24.30;40.80;;;;;;6198381;23;20427;-59
2022/09/16 11:10:42;;;;;;;0.70;0.63;;;24.30;40.80;;;;;;6168038;23;20455;-63
2022/09/16 11:13:26;;;;;;;0.60;0.50;;;24.30;40.80;;;;;;6179788;23;20412;-62
2022/09/16 11:16:14;;;;;;;0.93;0.67;;;24.30;40.70;;;;;;6169790;23;20499;-64
2022/09/16 11:19:01;;;;;;;0.70;0.60;;;24.30;40.80;;;;;;6193654;23;20411;-58
2022/09/16 11:21:40;;;;;;;0.60;0.60;;;24.30;40.80;;;;;;6199870;23;20415;-59
2022/09/16 11:24:41;;;;;;;0.70;0.67;;;24.20;40.70;;;;;;6193372;23;20424;-65
2022/09/16 11:27:12;;;;;;;1.50;0.60;;;24.20;40.70;;;;;;6191392;23;20933;-59
2022/09/16 11:30:02;;;;;;;2.03;1.30;;;24.20;40.70;;;;;;6192148;23;20420;-64
2022/09/16 11:32:54;;;;;;;0.90;0.70;;;24.20;40.70;;;;;;6161944;23;20409;-61
2022/09/16 11:35:43;;;;;;;0.97;0.60;;;24.20;40.60;;;;;;6172794;23;20426;-62
2022/09/16 11:38:16;;;;;;;1.07;0.60;;;24.20;40.60;;;;;;6177343;23;20903;-60
2022/09/16 11:41:07;;;;;;;2.30;0.80;;;24.20;40.60;;;;;;6169483;23;20427;-60
2022/09/16 11:43:40;;;;;;;1.33;0.60;;;24.20;40.60;;;;;;6192604;23;20502;-59
2022/09/16 11:46:22;;;;;;;1.00;0.80;;;24.20;40.50;;;;;;6198371;23;20463;-60
2022/09/16 11:49:12;;;;;;;0.90;0.63;;;24.30;40.70;;;;;;6168544;23;20428;-65
2022/09/16 11:51:53;;;;;;;1.57;0.50;;;24.30;40.60;;;;;;6196998;23;20517;-62
2022/09/16 11:54:51;;;;;;;1.83;1.17;;;24.30;40.60;;;;;;6194842;23;20419;-64
2022/09/16 11:57:21;;;;;;;0.70;0.60;;;24.30;40.70;;;;;;6199423;23;20430;-60
2022/09/16 12:00:04;;;;;;;1.47;0.60;;;24.30;40.60;;;;;;6201472;23;20478;-60
2022/09/16 12:02:53;;;;;;;0.60;0.60;;;24.30;40.60;;;;;;6193210;23;20427;-64
2022/09/16 12:05:35;;;;;;;1.00;0.60;;;24.30;40.60;;;;;;6182391;23;20737;-61
2022/09/16 12:08:36;;;;;;;0.80;0.70;;;24.30;40.60;;;;;;6194339;23;20961;-60
2022/09/16 12:11:17;;;;;;;0.70;0.70;;;24.30;40.70;;;;;;6162121;23;20424;-59
2022/09/16 12:13:47;;;;;;;1.17;0.70;;;24.30;40.70;;;;;;6200488;23;20423;-62
2022/09/16 12:16:17;;;;;;;0.80;0.60;;;24.30;40.70;;;;;;6200084;23;20443;-61
2022/09/16 12:18:48;;;;;;;0.70;0.60;;;24.30;40.70;;;;;;6199844;23;20515;-60
2022/09/16 12:21:37;;;;;;;0.80;0.60;;;24.30;40.80;;;;;;6197671;23;20883;-62
2022/09/16 12:24:12;;;;;;;1.67;0.60;;;24.30;40.70;;;;;;6182788;23;20707;-61
2022/09/16 12:26:43;;;;;;;1.00;0.70;;;24.30;40.80;;;;;;6167465;23;20791;-64
2022/09/16 12:29:39;;;;;;;0.93;0.73;;;24.30;40.90;;;;;;6178927;23;20474;-61
2022/09/16 12:32:33;;;;;;;0.87;0.70;;;24.30;40.80;;;;;;6165189;23;20417;-65
2022/09/16 12:35:09;;;;;;;1.00;0.80;;;24.30;40.90;;;;;;6164529;23;21294;-63
2022/09/16 12:37:48;;;;;;;0.70;0.63;;;24.30;41.00;;;;;;6166502;23;20910;-65
2022/09/16 12:40:23;;;;;;;0.80;0.70;;;24.30;40.90;;;;;;6194046;23;20449;-63
2022/09/16 12:43:16;;;;;;;0.60;0.60;;;24.30;41.00;;;;;;6197235;23;20953;-62
2022/09/16 12:46:10;;;;;;;0.60;0.60;;;24.30;41.00;;;;;;6199822;23;20416;-65
2022/09/16 12:48:42;;;;;;;0.60;0.50;;;24.30;41.00;;;;;;6197685;23;20520;-63
2022/09/16 12:51:26;;;;;;;0.80;0.70;;;24.30;41.10;;;;;;6197651;23;20458;-65
2022/09/16 12:54:24;;;;;;;0.83;0.70;;;24.30;41.10;;;;;;6197923;23;20419;-60
2022/09/16 12:57:18;;;;;;;1.23;0.70;;;24.30;41.10;;;;;;6169775;23;20507;-62
2022/09/16 13:00:08;;;;;;;0.73;0.70;;;24.30;41.20;;;;;;6178042;23;20885;-61
2022/09/16 13:02:38;;;;;;;0.80;0.70;;;24.30;41.20;;;;;;6171773;23;20416;-60
2022/09/16 13:05:19;;;;;;;0.77;0.70;;;24.30;41.20;;;;;;6169502;23;20427;-59
2022/09/16 13:07:51;;;;;;;0.80;0.80;;;24.30;41.20;;;;;;6178910;23;20431;-60
2022/09/16 13:10:30;;;;;;;0.80;0.77;;;24.30;41.30;;;;;;6197804;23;21262;-61
2022/09/16 13:12:59;;;;;;;5.23;1.13;;;24.30;41.30;;;;;;6168888;23;20431;-65
2022/09/16 13:15:35;;;;;;;0.60;0.60;;;24.30;41.40;;;;;;6170363;23;20765;-65
2022/09/16 13:18:15;;;;;;;0.70;0.70;;;24.30;41.30;;;;;;6184838;23;20419;-59
2022/09/16 13:20:49;;;;;;;0.80;0.80;;;24.30;41.30;;;;;;6184812;23;20423;-62